Time;durP1;ratioP1;P1;durP2;ratioP2;P2;SDS_P1;SDS_P2;PMS_P1;PMS_P2;Temp;Humidity;BMP_temperature;BMP_pressure;BME280_temperature;BME280_humidity;BME280_pressure;Samples;Min_cycle;Max_cycle;Signal;HPM_P1;HPM_P2
2021/07/21 00:00:48;;;;;;;16.02;11.07;;;;;;;;;;4949485;28;20129;-47
2021/07/21 00:03:15;;;;;;;15.95;11.02;;;;;;;;;;4953938;29;20043;-50
2021/07/21 00:05:43;;;;;;;14.25;10.50;;;;;;;;;;4942362;29;20043;-50
2021/07/21 00:08:10;;;;;;;13.23;10.63;;;;;;;;;;4927798;29;20139;-50
2021/07/21 00:10:37;;;;;;;16.00;11.60;;;;;;;;;;4934753;29;20458;-49
2021/07/21 00:18:32;;;;;;;16.25;10.35;;;;;;;;;;4924106;29;20051;-46
2021/07/21 00:20:59;;;;;;;;;;;;;;;;;;4937493;29;20131;-46
2021/07/21 00:23:26;;;;;;;13.55;9.90;;;;;;;;;;4948593;28;20370;-46
2021/07/21 00:25:53;;;;;;;18.92;12.57;;;;;;;;;;4931595;29;20044;-47
2021/07/21 00:28:19;;;;;;;18.52;11.52;;;;;;;;;;4937779;29;20047;-46
2021/07/21 00:30:46;;;;;;;16.08;11.00;;;;;;;;;;4918964;29;20162;-49
2021/07/21 00:33:14;;;;;;;14.18;10.73;;;;;;;;;;4923175;29;20047;-45
2021/07/21 00:35:42;;;;;;;14.82;10.90;;;;;;;;;;4950000;29;20476;-49
2021/07/21 00:38:09;;;;;;;15.05;11.55;;;;;;;;;;4948305;28;20663;-46
2021/07/21 00:40:37;;;;;;;20.02;11.68;;;;;;;;;;4934139;29;20047;-46
2021/07/21 00:43:03;;;;;;;16.88;11.68;;;;;;;;;;4936686;29;20050;-48
2021/07/21 00:45:31;;;;;;;19.10;12.63;;;;;;;;;;4949354;29;20039;-46
2021/07/21 00:47:58;;;;;;;17.40;11.25;;;;;;;;;;4921484;28;20067;-49
2021/07/21 00:50:25;;;;;;;16.02;10.68;;;;;;;;;;4948473;29;20043;-46
2021/07/21 00:52:52;;;;;;;15.45;11.18;;;;;;;;;;4954685;28;20412;-47
2021/07/21 00:55:24;;;;;;;14.45;10.48;;;;;;;;;;4942981;29;20032;-47
2021/07/21 00:57:55;;;;;;;17.00;11.82;;;;;;;;;;4934412;29;20040;-49
2021/07/21 01:00:22;;;;;;;14.65;11.15;;;;;;;;;;4937517;28;20103;-44
2021/07/21 01:02:52;;;;;;;18.70;12.10;;;;;;;;;;4935692;29;20054;-46
2021/07/21 01:05:30;;;;;;;16.42;12.05;;;;;;;;;;4933760;29;20051;-47
2021/07/21 01:08:04;;;;;;;20.60;12.02;;;;;;;;;;4933085;29;20500;-46
2021/07/21 01:10:42;;;;;;;17.52;11.77;;;;;;;;;;4939643;28;20035;-46
2021/07/21 01:13:15;;;;;;;15.63;11.07;;;;;;;;;;4953462;28;20500;-49
2021/07/21 01:15:45;;;;;;;16.10;11.38;;;;;;;;;;4930835;29;20453;-49
2021/07/21 01:18:15;;;;;;;16.00;11.15;;;;;;;;;;4929680;29;20032;-47
2021/07/21 01:21:00;;;;;;;16.02;11.48;;;;;;;;;;4940414;28;20043;-46
2021/07/21 01:23:46;;;;;;;16.80;12.15;;;;;;;;;;4933225;29;20040;-46
2021/07/21 01:26:15;;;;;;;15.63;11.63;;;;;;;;;;4948905;29;20111;-48
2021/07/21 01:28:46;;;;;;;16.50;11.85;;;;;;;;;;4943129;28;20453;-47
2021/07/21 01:31:16;;;;;;;18.05;11.13;;;;;;;;;;4940765;29;20501;-49
2021/07/21 01:33:44;;;;;;;17.50;12.30;;;;;;;;;;4948174;29;20408;-48
2021/07/21 01:36:13;;;;;;;18.23;12.82;;;;;;;;;;4933075;29;20131;-49
2021/07/21 01:38:45;;;;;;;15.30;12.15;;;;;;;;;;4921282;29;20043;-47
2021/07/21 01:41:24;;;;;;;16.23;11.68;;;;;;;;;;4949086;29;20110;-52
2021/07/21 01:43:56;;;;;;;15.23;11.32;;;;;;;;;;4938126;29;20036;-45
2021/07/21 01:46:24;;;;;;;16.65;12.05;;;;;;;;;;4937451;29;20071;-45
2021/07/21 01:48:53;;;;;;;16.95;12.15;;;;;;;;;;4921756;29;20638;-44
2021/07/21 01:51:22;;;;;;;14.65;11.68;;;;;;;;;;4934300;29;20044;-44
2021/07/21 01:53:50;;;;;;;17.33;12.10;;;;;;;;;;4940176;28;20386;-44
2021/07/21 01:56:18;;;;;;;16.30;11.82;;;;;;;;;;4931824;29;20044;-45
2021/07/21 01:58:50;;;;;;;18.35;12.48;;;;;;;;;;4947060;28;20048;-43
2021/07/21 02:01:31;;;;;;;16.58;11.98;;;;;;;;;;4936547;29;20047;-46
2021/07/21 02:04:04;;;;;;;16.98;12.32;;;;;;;;;;4933347;29;20035;-44
2021/07/21 02:06:33;;;;;;;17.02;11.75;;;;;;;;;;4943170;29;20094;-44
2021/07/21 02:09:04;;;;;;;18.92;12.40;;;;;;;;;;4920474;29;20051;-44
2021/07/21 02:11:32;;;;;;;17.05;12.73;;;;;;;;;;4943443;29;20057;-44
2021/07/21 02:14:01;;;;;;;16.73;12.75;;;;;;;;;;4952551;29;20047;-45
2021/07/21 02:16:47;;;;;;;17.02;12.27;;;;;;;;;;4921932;29;20051;-47
2021/07/21 02:19:21;;;;;;;17.52;12.18;;;;;;;;;;4946688;29;20381;-47
2021/07/21 02:22:01;;;;;;;20.00;13.27;;;;;;;;;;4940011;29;20047;-47
2021/07/21 02:24:30;;;;;;;19.23;13.35;;;;;;;;;;4934034;29;20130;-45
2021/07/21 02:26:57;;;;;;;17.88;12.90;;;;;;;;;;4922157;29;20040;-43
2021/07/21 02:29:26;;;;;;;17.33;13.15;;;;;;;;;;4913315;29;20091;-43
2021/07/21 02:32:02;;;;;;;18.17;12.02;;;;;;;;;;4938791;29;20122;-46
2021/07/21 02:34:29;;;;;;;16.40;12.40;;;;;;;;;;4935660;28;20070;-47
2021/07/21 02:36:58;;;;;;;19.90;12.90;;;;;;;;;;4947415;29;20043;-48
2021/07/21 02:39:25;;;;;;;17.20;12.40;;;;;;;;;;4933070;29;20575;-45
2021/07/21 02:41:53;;;;;;;23.63;13.18;;;;;;;;;;4944775;29;20047;-43
2021/07/21 02:44:21;;;;;;;17.88;13.25;;;;;;;;;;4932812;29;20103;-45
2021/07/21 02:46:51;;;;;;;17.45;13.05;;;;;;;;;;4938557;29;20520;-47
2021/07/21 02:49:19;;;;;;;17.92;12.95;;;;;;;;;;4926011;29;20076;-45
2021/07/21 02:51:57;;;;;;;19.38;13.23;;;;;;;;;;4951779;29;20055;-45
2021/07/21 02:55:09;;;;;;;17.20;11.60;;;;;;;;;;4925062;29;20055;-45
2021/07/21 02:57:45;;;;;;;17.95;12.57;;;;;;;;;;4942338;29;20515;-48
2021/07/21 03:00:13;;;;;;;19.67;12.50;;;;;;;;;;4928912;29;20572;-46
2021/07/21 03:02:45;;;;;;;20.83;12.60;;;;;;;;;;4948808;29;20048;-45
2021/07/21 03:05:13;;;;;;;20.45;13.13;;;;;;;;;;4938923;29;20046;-48
2021/07/21 03:07:54;;;;;;;20.38;13.48;;;;;;;;;;4939868;29;20040;-44
2021/07/21 03:10:21;;;;;;;17.33;12.93;;;;;;;;;;4916697;29;20409;-44
2021/07/21 03:13:16;;;;;;;18.30;12.95;;;;;;;;;;4931667;29;20051;-49
2021/07/21 03:15:54;;;;;;;18.00;13.35;;;;;;;;;;4937836;29;20477;-47
2021/07/21 03:18:32;;;;;;;15.75;12.80;;;;;;;;;;4929573;29;20104;-48
2021/07/21 03:20:59;;;;;;;18.05;13.07;;;;;;;;;;4936541;29;20106;-46
2021/07/21 03:23:31;;;;;;;16.70;12.77;;;;;;;;;;4931966;29;20048;-43
2021/07/21 03:26:20;;;;;;;20.13;13.75;;;;;;;;;;4938700;29;20051;-43
2021/07/21 03:28:51;;;;;;;17.33;13.05;;;;;;;;;;4932008;29;20618;-44
2021/07/21 03:31:18;;;;;;;16.05;11.93;;;;;;;;;;4932432;29;20128;-43
2021/07/21 03:33:58;;;;;;;17.40;13.23;;;;;;;;;;4949690;29;20055;-48
2021/07/21 03:36:28;;;;;;;16.98;12.77;;;;;;;;;;4950121;29;20505;-44
2021/07/21 03:39:13;;;;;;;18.40;13.48;;;;;;;;;;4919190;29;20035;-44
2021/07/21 03:42:12;;;;;;;19.48;13.15;;;;;;;;;;4917344;29;20493;-45
2021/07/21 03:44:43;;;;;;;18.17;13.10;;;;;;;;;;4925688;29;20124;-44
2021/07/21 03:47:13;;;;;;;18.63;13.60;;;;;;;;;;4953875;28;20054;-47
2021/07/21 03:49:40;;;;;;;18.50;13.27;;;;;;;;;;4952412;28;20077;-44
2021/07/21 03:52:10;;;;;;;18.67;13.90;;;;;;;;;;4935842;29;20055;-46
2021/07/21 03:54:39;;;;;;;19.55;14.35;;;;;;;;;;4950192;29;20417;-44
2021/07/21 03:57:17;;;;;;;19.58;13.68;;;;;;;;;;4955940;28;20464;-45
2021/07/21 03:59:45;;;;;;;18.67;13.50;;;;;;;;;;4939439;29;20406;-46
2021/07/21 04:02:13;;;;;;;20.95;13.32;;;;;;;;;;4947539;29;20043;-49
2021/07/21 04:04:42;;;;;;;18.02;13.40;;;;;;;;;;4947195;29;20044;-47
2021/07/21 04:07:15;;;;;;;19.38;13.50;;;;;;;;;;4949260;29;20489;-45
2021/07/21 04:09:50;;;;;;;19.50;13.27;;;;;;;;;;4941423;29;20044;-47
2021/07/21 04:12:19;;;;;;;19.48;13.68;;;;;;;;;;4951188;29;20073;-44
2021/07/21 04:14:54;;;;;;;20.42;14.30;;;;;;;;;;4953850;28;20404;-48
2021/07/21 04:17:35;;;;;;;21.42;13.90;;;;;;;;;;4938431;29;20142;-46
2021/07/21 04:20:09;;;;;;;19.00;12.90;;;;;;;;;;4934970;29;20036;-46
2021/07/21 04:22:37;;;;;;;18.65;13.18;;;;;;;;;;4945442;29;20727;-46
2021/07/21 04:25:06;;;;;;;21.15;14.20;;;;;;;;;;4937468;29;20043;-46
2021/07/21 04:27:34;;;;;;;19.25;13.98;;;;;;;;;;4936253;29;20470;-46
2021/07/21 04:30:13;;;;;;;18.35;13.50;;;;;;;;;;4933981;28;20063;-50
2021/07/21 04:32:42;;;;;;;18.75;13.48;;;;;;;;;;4953009;29;20047;-45
2021/07/21 04:35:16;;;;;;;21.13;14.32;;;;;;;;;;4949459;28;20045;-47
2021/07/21 04:37:59;;;;;;;18.60;12.77;;;;;;;;;;4931366;29;20399;-46
2021/07/21 04:40:43;;;;;;;19.05;14.00;;;;;;;;;;4945491;29;20441;-47
2021/07/21 04:43:48;;;;;;;15.98;11.85;;;;;;;;;;4947673;29;20047;-45
2021/07/21 04:46:38;;;;;;;20.90;13.32;;;;;;;;;;4941651;29;20043;-45
2021/07/21 04:49:06;;;;;;;17.25;12.35;;;;;;;;;;4952679;28;20066;-48
2021/07/21 04:51:34;;;;;;;19.20;13.77;;;;;;;;;;4944824;28;20039;-46
2021/07/21 04:54:12;;;;;;;19.88;13.27;;;;;;;;;;4944347;29;20405;-46
2021/07/21 04:56:41;;;;;;;19.05;14.00;;;;;;;;;;4939235;29;20493;-48
2021/07/21 04:59:11;;;;;;;22.23;13.70;;;;;;;;;;4942329;28;20564;-49
2021/07/21 05:01:40;;;;;;;19.00;13.23;;;;;;;;;;4934267;29;20788;-45
2021/07/21 05:04:08;;;;;;;19.30;12.73;;;;;;;;;;4938660;29;20470;-46
2021/07/21 05:06:44;;;;;;;21.30;14.32;;;;;;;;;;4937434;29;20142;-49
2021/07/21 05:09:13;;;;;;;18.73;13.63;;;;;;;;;;4923553;29;20405;-46
2021/07/21 05:11:47;;;;;;;17.92;13.77;;;;;;;;;;4934150;29;20902;-49
2021/07/21 05:14:15;;;;;;;19.02;12.88;;;;;;;;;;4939604;29;20054;-45
2021/07/21 05:17:00;;;;;;;20.02;13.48;;;;;;;;;;4936290;29;20115;-45
2021/07/21 05:19:33;;;;;;;17.00;13.20;;;;;;;;;;4943528;29;20523;-45
2021/07/21 05:22:04;;;;;;;20.05;13.48;;;;;;;;;;4933300;29;20449;-46
2021/07/21 05:24:31;;;;;;;21.17;14.10;;;;;;;;;;4928784;29;20532;-45
2021/07/21 05:26:58;;;;;;;17.40;14.07;;;;;;;;;;4934115;29;20087;-47
2021/07/21 05:29:28;;;;;;;20.83;14.27;;;;;;;;;;4940570;28;20052;-47
2021/07/21 05:32:03;;;;;;;22.17;15.07;;;;;;;;;;4934127;29;20051;-48
2021/07/21 05:34:29;;;;;;;22.35;14.30;;;;;;;;;;4946244;28;20098;-46
2021/07/21 05:37:14;;;;;;;22.95;13.88;;;;;;;;;;4936534;29;20056;-46
2021/07/21 05:39:49;;;;;;;22.70;12.90;;;;;;;;;;4937411;28;20481;-48
2021/07/21 05:42:16;;;;;;;20.15;14.07;;;;;;;;;;4936081;29;20458;-48
2021/07/21 05:44:43;;;;;;;21.08;13.70;;;;;;;;;;4950402;28;20043;-48
2021/07/21 05:47:11;;;;;;;20.05;13.90;;;;;;;;;;4943602;29;20043;-49
2021/07/21 05:49:39;;;;;;;20.88;13.95;;;;;;;;;;4928551;29;20046;-49
2021/07/21 05:52:44;;;;;;;21.52;13.93;;;;;;;;;;4944841;28;20083;-47
2021/07/21 05:55:12;;;;;;;22.70;14.40;;;;;;;;;;4942867;29;20063;-45
2021/07/21 05:57:39;;;;;;;21.20;14.18;;;;;;;;;;4916274;29;20108;-48
2021/07/21 06:00:08;;;;;;;21.80;14.02;;;;;;;;;;4930734;29;20038;-48
2021/07/21 06:02:41;;;;;;;21.83;14.25;;;;;;;;;;4933714;29;20429;-46
2021/07/21 06:05:12;;;;;;;18.98;14.77;;;;;;;;;;4933748;29;20032;-46
2021/07/21 06:08:00;;;;;;;22.67;15.20;;;;;;;;;;4950877;29;20047;-48
2021/07/21 06:10:45;;;;;;;20.52;14.60;;;;;;;;;;4933907;29;20047;-47
2021/07/21 06:13:12;;;;;;;21.80;15.23;;;;;;;;;;4933615;29;20052;-45
2021/07/21 06:15:40;;;;;;;20.52;15.40;;;;;;;;;;4948030;28;20146;-46
2021/07/21 06:18:08;;;;;;;22.73;14.65;;;;;;;;;;4927274;29;20052;-46
2021/07/21 06:20:43;;;;;;;21.08;13.73;;;;;;;;;;4928924;29;20043;-46
2021/07/21 06:23:10;;;;;;;24.00;15.40;;;;;;;;;;4953978;28;20043;-46
2021/07/21 06:25:42;;;;;;;27.20;17.20;;;;;;;;;;4946613;29;20047;-48
2021/07/21 06:28:21;;;;;;;20.13;14.85;;;;;;;;;;4925716;29;20036;-46
2021/07/21 06:30:48;;;;;;;20.85;14.35;;;;;;;;;;4919605;29;20569;-47
2021/07/21 06:33:22;;;;;;;17.33;13.82;;;;;;;;;;4934110;29;20118;-50
2021/07/21 06:35:49;;;;;;;23.17;15.50;;;;;;;;;;4937507;29;20101;-48
2021/07/21 06:38:17;;;;;;;22.30;13.75;;;;;;;;;;4929268;28;20048;-49
2021/07/21 06:41:04;;;;;;;19.85;13.63;;;;;;;;;;4921497;29;20044;-45
2021/07/21 06:43:38;;;;;;;21.42;13.43;;;;;;;;;;4933775;29;20044;-45
2021/07/21 06:46:12;;;;;;;19.98;14.00;;;;;;;;;;4932500;29;20048;-46
2021/07/21 06:48:42;;;;;;;17.92;12.52;;;;;;;;;;4913445;29;20048;-46
2021/07/21 06:51:11;;;;;;;18.85;12.85;;;;;;;;;;4947260;29;20075;-49
2021/07/21 06:53:38;;;;;;;17.25;13.15;;;;;;;;;;4933498;29;20465;-48
2021/07/21 06:56:25;;;;;;;17.92;12.77;;;;;;;;;;4914376;29;20110;-49
2021/07/21 06:59:12;;;;;;;22.27;13.27;;;;;;;;;;4920677;28;20414;-49
2021/07/21 07:01:38;;;;;;;19.55;12.77;;;;;;;;;;4928146;29;20546;-48
2021/07/21 07:04:38;;;;;;;16.60;12.82;;;;;;;;;;4909464;29;20044;-49
2021/07/21 07:07:40;;;;;;;20.85;13.65;;;;;;;;;;4930015;29;20044;-51
2021/07/21 07:10:45;;;;;;;15.02;11.63;;;;;;;;;;4910450;29;20140;-48
2021/07/21 07:13:12;;;;;;;18.80;11.90;;;;;;;;;;4910770;29;20086;-48
2021/07/21 07:15:39;;;;;;;18.20;11.30;;;;;;;;;;4919455;28;20044;-49
2021/07/21 07:18:06;;;;;;;16.70;12.07;;;;;;;;;;4932330;29;20580;-48
2021/07/21 07:20:33;;;;;;;16.20;11.95;;;;;;;;;;4933171;29;20043;-47
2021/07/21 07:22:59;;;;;;;18.67;10.13;;;;;;;;;;4936974;28;20044;-46
2021/07/21 07:25:26;;;;;;;15.20;11.23;;;;;;;;;;4933743;29;20404;-48
2021/07/21 07:27:53;;;;;;;15.63;10.07;;;;;;;;;;4937275;28;20036;-47
2021/07/21 07:30:21;;;;;;;14.07;10.05;;;;;;;;;;4931728;29;20043;-48
2021/07/21 07:32:48;;;;;;;16.38;10.75;;;;;;;;;;4939183;28;20737;-50
2021/07/21 07:35:15;;;;;;;12.30;9.13;;;;;;;;;;4956516;28;20066;-48
2021/07/21 07:37:43;;;;;;;14.90;10.13;;;;;;;;;;4918549;29;20052;-50
2021/07/21 07:40:10;;;;;;;12.40;9.18;;;;;;;;;;4940454;29;20142;-48
2021/07/21 07:42:37;;;;;;;12.15;9.02;;;;;;;;;;4949470;29;20416;-46
2021/07/21 07:45:04;;;;;;;13.02;10.07;;;;;;;;;;4956286;28;20086;-51
2021/07/21 07:47:32;;;;;;;14.23;10.60;;;;;;;;;;4937979;28;20044;-48
2021/07/21 07:50:00;;;;;;;13.90;10.10;;;;;;;;;;4940755;29;20446;-51
2021/07/21 07:52:26;;;;;;;14.30;9.32;;;;;;;;;;4940847;28;20050;-47
2021/07/21 07:54:53;;;;;;;15.82;8.75;;;;;;;;;;4925314;29;20064;-50
2021/07/21 07:57:20;;;;;;;13.35;9.68;;;;;;;;;;4929535;29;20118;-47
2021/07/21 07:59:47;;;;;;;11.20;9.20;;;;;;;;;;4926469;29;20127;-46
2021/07/21 08:02:13;;;;;;;12.25;8.77;;;;;;;;;;4945294;29;20040;-48
2021/07/21 08:04:41;;;;;;;14.00;8.75;;;;;;;;;;4941666;29;20096;-47
2021/07/21 08:07:07;;;;;;;13.32;8.98;;;;;;;;;;4943209;28;20059;-50
2021/07/21 08:09:34;;;;;;;11.55;8.60;;;;;;;;;;4945360;29;20058;-47
2021/07/21 08:12:01;;;;;;;13.60;8.60;;;;;;;;;;4943355;28;20051;-47
2021/07/21 08:14:29;;;;;;;11.60;9.10;;;;;;;;;;4942614;29;20051;-47
2021/07/21 08:16:56;;;;;;;14.73;9.43;;;;;;;;;;4952202;28;20540;-49
2021/07/21 08:19:23;;;;;;;16.25;9.02;;;;;;;;;;4930871;29;20058;-47
2021/07/21 08:21:50;;;;;;;15.20;9.13;;;;;;;;;;4930535;29;20036;-46
2021/07/21 08:24:17;;;;;;;13.27;9.23;;;;;;;;;;4941740;29;20055;-45
2021/07/21 08:26:44;;;;;;;11.88;8.77;;;;;;;;;;4955701;28;20600;-46
2021/07/21 08:29:31;;;;;;;12.38;8.70;;;;;;;;;;4945668;28;20039;-45
2021/07/21 08:31:58;;;;;;;11.55;8.88;;;;;;;;;;4951044;28;20424;-46
2021/07/21 08:34:25;;;;;;;12.73;8.75;;;;;;;;;;4943647;28;20561;-47
2021/07/21 08:36:52;;;;;;;11.48;8.32;;;;;;;;;;4935179;29;20531;-48
2021/07/21 08:39:18;;;;;;;14.75;8.93;;;;;;;;;;4941840;29;20138;-46
2021/07/21 08:41:45;;;;;;;10.35;7.85;;;;;;;;;;4943590;28;20126;-48
2021/07/21 08:44:12;;;;;;;11.35;8.27;;;;;;;;;;4939878;29;20417;-46
2021/07/21 08:46:40;;;;;;;12.98;8.45;;;;;;;;;;4935547;29;20075;-47
2021/07/21 08:49:07;;;;;;;12.57;8.18;;;;;;;;;;4941554;29;20035;-47
2021/07/21 08:51:35;;;;;;;11.85;7.07;;;;;;;;;;4951994;28;20558;-46
2021/07/21 08:54:07;;;;;;;10.15;8.05;;;;;;;;;;4937914;29;20468;-46
2021/07/21 08:56:35;;;;;;;10.38;7.75;;;;;;;;;;4934237;29;20067;-47
2021/07/21 08:59:02;;;;;;;12.30;8.32;;;;;;;;;;4904577;29;20048;-47
2021/07/21 09:01:28;;;;;;;11.73;8.13;;;;;;;;;;4940696;29;20058;-46
2021/07/21 09:03:56;;;;;;;11.38;8.52;;;;;;;;;;4932764;29;20056;-49
2021/07/21 09:06:28;;;;;;;11.18;7.70;;;;;;;;;;4936773;29;20415;-49
2021/07/21 09:08:54;;;;;;;10.40;8.02;;;;;;;;;;4938217;28;20044;-46
2021/07/21 09:11:21;;;;;;;12.88;8.32;;;;;;;;;;4950195;28;20508;-47
2021/07/21 09:13:48;;;;;;;12.90;8.30;;;;;;;;;;4953771;28;20130;-48
2021/07/21 09:16:15;;;;;;;12.77;9.25;;;;;;;;;;4944029;29;20051;-46
2021/07/21 09:19:00;;;;;;;12.05;8.75;;;;;;;;;;4940595;28;20044;-46
2021/07/21 09:21:27;;;;;;;11.05;8.10;;;;;;;;;;4942208;29;20143;-49
2021/07/21 09:23:55;;;;;;;13.93;8.82;;;;;;;;;;4938296;29;20130;-47
2021/07/21 09:26:21;;;;;;;10.70;8.25;;;;;;;;;;4933138;29;20070;-49
2021/07/21 09:28:49;;;;;;;11.40;7.97;;;;;;;;;;4921679;29;20103;-45
2021/07/21 09:31:30;;;;;;;12.30;8.95;;;;;;;;;;4935438;29;20043;-46
2021/07/21 09:33:58;;;;;;;11.70;8.60;;;;;;;;;;4941060;29;20074;-46
2021/07/21 09:36:24;;;;;;;13.50;8.60;;;;;;;;;;4945536;28;20134;-47
2021/07/21 09:38:59;;;;;;;15.90;9.65;;;;;;;;;;4932533;29;20497;-47
2021/07/21 09:41:26;;;;;;;13.20;9.15;;;;;;;;;;4938397;29;20467;-50
2021/07/21 09:43:58;;;;;;;13.48;9.30;;;;;;;;;;4943600;29;20131;-48
2021/07/21 09:46:24;;;;;;;12.77;9.18;;;;;;;;;;4944300;29;20462;-47
2021/07/21 09:48:52;;;;;;;18.13;8.63;;;;;;;;;;4926600;28;20099;-48
2021/07/21 09:51:26;;;;;;;15.82;9.15;;;;;;;;;;4933293;29;20130;-49
2021/07/21 09:53:53;;;;;;;12.88;8.30;;;;;;;;;;4937117;29;20142;-47
2021/07/21 09:56:30;;;;;;;11.70;8.75;;;;;;;;;;4939282;29;20572;-49
2021/07/21 09:59:15;;;;;;;13.45;8.45;;;;;;;;;;4935188;29;20059;-47
2021/07/21 10:01:42;;;;;;;11.68;8.93;;;;;;;;;;4947565;29;20055;-47
2021/07/21 10:04:09;;;;;;;10.77;8.38;;;;;;;;;;4947698;29;20186;-47
2021/07/21 10:06:40;;;;;;;12.82;9.10;;;;;;;;;;4937096;28;20541;-49
2021/07/21 10:09:06;;;;;;;15.10;9.13;;;;;;;;;;4948060;28;20067;-50
2021/07/21 10:11:39;;;;;;;13.23;9.20;;;;;;;;;;4943914;28;20102;-50
2021/07/21 10:14:06;;;;;;;;;;;;;;;;;;4944085;29;20496;-48
2021/07/21 10:16:40;;;;;;;11.43;8.50;;;;;;;;;;4940403;28;19926;-49
2021/07/21 10:19:09;;;;;;;12.23;9.30;;;;;;;;;;4933758;29;20086;-48
2021/07/21 10:21:36;;;;;;;13.25;9.75;;;;;;;;;;4943984;29;20070;-49
2021/07/21 10:24:03;;;;;;;14.73;9.07;;;;;;;;;;4934270;29;20466;-47
2021/07/21 10:26:30;;;;;;;13.82;9.13;;;;;;;;;;4936729;29;20050;-50
2021/07/21 10:28:58;;;;;;;14.52;9.65;;;;;;;;;;4942532;28;20587;-50
2021/07/21 10:31:25;;;;;;;12.52;8.85;;;;;;;;;;4937618;29;20043;-47
2021/07/21 10:33:54;;;;;;;12.65;9.35;;;;;;;;;;4937772;28;20583;-49
2021/07/21 10:36:21;;;;;;;15.25;9.25;;;;;;;;;;4945573;28;20050;-46
2021/07/21 10:38:48;;;;;;;12.73;9.00;;;;;;;;;;4941346;28;20050;-46
2021/07/21 10:41:16;;;;;;;13.27;9.45;;;;;;;;;;4943010;28;20082;-47
2021/07/21 10:43:45;;;;;;;11.30;8.90;;;;;;;;;;4929730;29;20068;-46
2021/07/21 10:46:30;;;;;;;13.85;9.00;;;;;;;;;;4926157;29;20123;-48
2021/07/21 10:49:14;;;;;;;12.88;9.30;;;;;;;;;;4932675;29;20048;-45
2021/07/21 10:52:17;;;;;;;14.15;8.90;;;;;;;;;;4928991;29;20051;-46
2021/07/21 10:55:03;;;;;;;11.85;8.73;;;;;;;;;;4925561;29;20120;-50
2021/07/21 11:00:18;;;;;;;11.77;9.07;;;;;;;;;;4941768;28;20050;-48
2021/07/21 11:02:45;;;;;;;14.73;8.98;;;;;;;;;;4955055;28;20063;-49
2021/07/21 11:05:31;;;;;;;12.32;10.18;;;;;;;;;;4955351;28;20048;-45
2021/07/21 11:07:59;;;;;;;13.40;9.73;;;;;;;;;;4938970;29;20046;-49
2021/07/21 11:10:33;;;;;;;25.90;20.63;;;;;;;;;;4944627;29;20039;-50
2021/07/21 11:13:01;;;;;;;15.13;11.13;;;;;;;;;;4926353;29;20044;-46
2021/07/21 11:15:42;;;;;;;19.00;15.32;;;;;;;;;;4944189;29;20044;-48
2021/07/21 11:18:21;;;;;;;20.50;13.95;;;;;;;;;;4928390;29;20044;-47
2021/07/21 11:20:54;;;;;;;11.50;9.40;;;;;;;;;;4945154;29;20408;-48
2021/07/21 11:23:40;;;;;;;15.30;12.23;;;;;;;;;;4937508;29;20048;-46
2021/07/21 11:26:25;;;;;;;12.57;9.82;;;;;;;;;;4930768;29;20032;-46
2021/07/21 11:28:52;;;;;;;14.25;10.05;;;;;;;;;;4945556;29;20054;-48
2021/07/21 11:31:39;;;;;;;14.38;10.85;;;;;;;;;;4931280;29;20058;-47
2021/07/21 11:34:12;;;;;;;13.00;10.02;;;;;;;;;;4937533;29;20089;-48
2021/07/21 11:36:39;;;;;;;13.30;9.77;;;;;;;;;;4936787;29;20044;-50
2021/07/21 11:39:07;;;;;;;13.18;10.05;;;;;;;;;;4928206;29;20509;-46
2021/07/21 11:41:53;;;;;;;15.13;10.43;;;;;;;;;;4918509;29;20473;-47
2021/07/21 11:44:29;;;;;;;14.95;9.35;;;;;;;;;;4930202;29;20106;-46
2021/07/21 11:46:57;;;;;;;16.45;11.65;;;;;;;;;;4937316;29;20089;-48
2021/07/21 11:49:25;;;;;;;14.80;9.63;;;;;;;;;;4924027;29;20048;-47
2021/07/21 11:51:59;;;;;;;14.95;10.27;;;;;;;;;;4918430;29;20142;-46
2021/07/21 11:54:30;;;;;;;14.00;9.65;;;;;;;;;;4931739;29;20079;-46
2021/07/21 11:56:58;;;;;;;13.30;10.02;;;;;;;;;;4934732;29;20058;-48
2021/07/21 11:59:26;;;;;;;13.38;10.52;;;;;;;;;;4926898;29;20083;-49
2021/07/21 12:02:03;;;;;;;13.68;10.68;;;;;;;;;;4917971;29;20127;-49
2021/07/21 12:04:30;;;;;;;11.63;9.43;;;;;;;;;;4930964;29;20126;-49
2021/07/21 12:06:57;;;;;;;19.80;10.68;;;;;;;;;;4936787;29;20435;-49
2021/07/21 12:09:28;;;;;;;14.80;10.38;;;;;;;;;;4929481;29;20039;-50
2021/07/21 12:11:58;;;;;;;12.13;9.82;;;;;;;;;;4934666;29;20157;-47
2021/07/21 12:14:26;;;;;;;15.63;10.15;;;;;;;;;;4949914;29;20082;-47
2021/07/21 12:16:54;;;;;;;13.07;9.60;;;;;;;;;;4948928;28;20052;-50
2021/07/21 12:19:27;;;;;;;11.77;9.80;;;;;;;;;;4925666;29;20509;-52
2021/07/21 12:21:54;;;;;;;;;;;;;;;;;;4936768;29;20048;-49
2021/07/21 12:24:30;;;;;;;14.02;9.38;;;;;;;;;;4934660;29;19923;-52
2021/07/21 12:26:57;;;;;;;13.30;9.80;;;;;;;;;;4937055;29;20371;-49
2021/07/21 12:29:27;;;;;;;12.75;10.43;;;;;;;;;;4931248;28;20123;-51
2021/07/21 12:32:04;;;;;;;13.75;10.15;;;;;;;;;;4948409;29;20759;-47
2021/07/21 12:34:31;;;;;;;12.85;9.98;;;;;;;;;;4941026;29;20045;-48
2021/07/21 12:36:58;;;;;;;12.70;9.73;;;;;;;;;;4939728;29;20043;-48
2021/07/21 12:39:29;;;;;;;14.15;10.05;;;;;;;;;;4937058;29;20071;-51
2021/07/21 12:42:05;;;;;;;12.05;9.23;;;;;;;;;;4940045;28;20070;-46
2021/07/21 12:44:36;;;;;;;13.75;9.60;;;;;;;;;;4933328;29;20044;-48
2021/07/21 12:47:13;;;;;;;13.35;10.15;;;;;;;;;;4919981;29;20053;-48
2021/07/21 12:49:42;;;;;;;13.43;10.23;;;;;;;;;;4940101;28;20040;-49
2021/07/21 12:52:10;;;;;;;15.68;11.13;;;;;;;;;;4950492;28;20154;-47
2021/07/21 12:54:37;;;;;;;13.88;9.70;;;;;;;;;;4943300;29;20051;-48
2021/07/21 12:57:04;;;;;;;16.38;9.88;;;;;;;;;;4935831;28;20114;-48
2021/07/21 12:59:35;;;;;;;11.93;8.45;;;;;;;;;;4938734;29;20541;-48
2021/07/21 13:02:06;;;;;;;11.65;8.75;;;;;;;;;;4951235;29;20115;-50
2021/07/21 13:04:34;;;;;;;12.63;9.60;;;;;;;;;;4952555;28;20047;-48
2021/07/21 13:07:02;;;;;;;11.80;9.63;;;;;;;;;;4929952;29;20389;-48
2021/07/21 13:09:29;;;;;;;12.43;9.10;;;;;;;;;;4920579;29;20051;-49
2021/07/21 13:11:57;;;;;;;14.32;9.88;;;;;;;;;;4938079;29;20413;-51
2021/07/21 13:14:24;;;;;;;11.52;9.85;;;;;;;;;;4941609;28;20043;-51
2021/07/21 13:16:50;;;;;;;11.32;8.95;;;;;;;;;;4942542;29;20059;-48
2021/07/21 13:19:17;;;;;;;12.57;8.75;;;;;;;;;;4951487;28;20047;-49
2021/07/21 13:21:47;;;;;;;13.70;9.20;;;;;;;;;;4951709;28;20054;-48
2021/07/21 13:24:18;;;;;;;11.55;8.80;;;;;;;;;;4937163;29;20055;-49
2021/07/21 13:26:52;;;;;;;11.23;9.00;;;;;;;;;;4941977;29;20040;-48
2021/07/21 13:29:19;;;;;;;13.35;9.52;;;;;;;;;;4915332;29;20048;-49
2021/07/21 13:31:47;;;;;;;12.52;10.00;;;;;;;;;;4926270;29;20508;-48
2021/07/21 13:34:18;;;;;;;11.60;9.02;;;;;;;;;;4945707;29;20493;-51
2021/07/21 13:36:45;;;;;;;14.60;8.98;;;;;;;;;;4944149;28;20502;-49
2021/07/21 13:39:12;;;;;;;15.18;9.00;;;;;;;;;;4928872;29;20055;-49
2021/07/21 13:41:42;;;;;;;14.88;8.85;;;;;;;;;;4929407;29;20455;-51
2021/07/21 13:44:08;;;;;;;11.73;9.32;;;;;;;;;;4942247;29;20039;-50
2021/07/21 13:46:46;;;;;;;12.15;9.48;;;;;;;;;;4944624;28;20566;-51
2021/07/21 13:49:12;;;;;;;12.38;9.68;;;;;;;;;;4924553;29;20031;-50
2021/07/21 13:51:40;;;;;;;11.80;9.23;;;;;;;;;;4946009;29;20053;-48
2021/07/21 13:54:21;;;;;;;13.07;8.93;;;;;;;;;;4944355;29;20047;-45
2021/07/21 13:56:49;;;;;;;11.75;9.45;;;;;;;;;;4927939;28;20105;-50
2021/07/21 13:59:16;;;;;;;11.32;8.80;;;;;;;;;;4912283;29;20044;-49
2021/07/21 14:01:45;;;;;;;12.73;8.93;;;;;;;;;;4930294;29;20097;-50
2021/07/21 14:04:12;;;;;;;11.85;9.25;;;;;;;;;;4945552;28;20031;-49
2021/07/21 14:06:39;;;;;;;12.70;9.00;;;;;;;;;;4930915;29;20056;-49
2021/07/21 14:09:08;;;;;;;12.95;9.65;;;;;;;;;;4932970;29;20055;-48
2021/07/21 14:11:35;;;;;;;11.43;9.55;;;;;;;;;;4934443;29;20067;-48
2021/07/21 14:14:02;;;;;;;11.35;8.68;;;;;;;;;;4932848;29;20047;-49
2021/07/21 14:16:29;;;;;;;14.15;9.15;;;;;;;;;;4932612;29;20472;-49
2021/07/21 14:18:56;;;;;;;12.27;9.70;;;;;;;;;;4931956;29;20044;-52
2021/07/21 14:21:27;;;;;;;12.05;9.45;;;;;;;;;;4937808;29;20047;-52
2021/07/21 14:23:57;;;;;;;11.88;9.43;;;;;;;;;;4940533;28;20036;-49
2021/07/21 14:26:25;;;;;;;11.18;9.02;;;;;;;;;;4940406;29;20059;-51
2021/07/21 14:28:52;;;;;;;12.05;8.82;;;;;;;;;;4943477;29;20140;-51
2021/07/21 14:31:19;;;;;;;13.00;9.00;;;;;;;;;;4920768;29;20047;-52
2021/07/21 14:34:03;;;;;;;13.13;9.80;;;;;;;;;;4944564;29;20102;-52
2021/07/21 14:36:30;;;;;;;11.60;9.57;;;;;;;;;;4930727;29;20374;-49
2021/07/21 14:38:57;;;;;;;14.30;9.25;;;;;;;;;;4935751;28;20115;-48
2021/07/21 14:41:24;;;;;;;14.48;8.75;;;;;;;;;;4936834;29;20050;-49
2021/07/21 14:43:51;;;;;;;12.75;9.38;;;;;;;;;;4935499;28;20066;-50
2021/07/21 14:46:18;;;;;;;14.23;9.35;;;;;;;;;;4938567;29;20067;-49
2021/07/21 14:49:05;;;;;;;11.20;9.02;;;;;;;;;;4926560;29;20043;-49
2021/07/21 14:51:32;;;;;;;12.98;9.20;;;;;;;;;;4926173;29;20099;-49
2021/07/21 14:53:59;;;;;;;10.95;9.10;;;;;;;;;;4932941;29;20044;-51
2021/07/21 14:56:26;;;;;;;15.43;9.27;;;;;;;;;;4942984;29;20067;-49